createdAt,value
2022-12-17T00:00:52.509Z,0.70
2022-12-17T00:03:42.163Z,0.70
2022-12-17T00:06:29.630Z,0.70
2022-12-17T00:09:28.266Z,0.70
2022-12-17T00:12:18.508Z,0.70
2022-12-17T00:15:06.774Z,0.70
2022-12-17T00:17:52.798Z,0.70
2022-12-17T00:20:59.028Z,0.70
2022-12-17T00:24:17.411Z,0.70
2022-12-17T00:27:07.764Z,0.70
2022-12-17T00:29:54.228Z,0.70
2022-12-17T00:32:44.163Z,0.70
2022-12-17T00:35:30.166Z,0.60
2022-12-17T00:38:15.608Z,0.70
2022-12-17T00:41:03.955Z,0.70
2022-12-17T00:43:49.730Z,0.70
2022-12-17T00:46:37.584Z,0.70
2022-12-17T00:49:25.630Z,0.70
2022-12-17T00:52:11.189Z,0.70
2022-12-17T00:54:57.180Z,0.70
2022-12-17T00:57:44.357Z,0.70
2022-12-17T01:00:50.224Z,0.60
2022-12-17T01:03:36.400Z,0.70
2022-12-17T01:06:23.684Z,0.70
2022-12-17T01:09:06.524Z,0.60
2022-12-17T01:11:52.424Z,0.60
2022-12-17T01:14:44.453Z,0.60
2022-12-17T01:17:33.014Z,0.60
2022-12-17T01:20:19.051Z,0.60
2022-12-17T01:23:07.124Z,0.60
2022-12-17T01:25:52.869Z,0.60
2022-12-17T01:28:43.135Z,0.60
2022-12-17T01:31:34.884Z,0.60
2022-12-17T01:34:21.863Z,0.60
2022-12-17T01:37:07.114Z,0.60
2022-12-17T01:39:55.407Z,0.60
2022-12-17T01:42:41.110Z,0.60
2022-12-17T01:45:39.262Z,0.60
2022-12-17T01:48:33.907Z,0.60
2022-12-17T01:51:21.181Z,0.60
2022-12-17T01:54:11.849Z,0.60
2022-12-17T01:57:00.759Z,0.60
2022-12-17T01:59:56.726Z,0.60
2022-12-17T02:02:43.283Z,0.60
2022-12-17T02:05:31.503Z,0.60
2022-12-17T02:08:24.658Z,0.60
2022-12-17T02:11:18.230Z,0.60
2022-12-17T02:14:16.494Z,0.50
2022-12-17T02:17:09.706Z,0.60
2022-12-17T02:20:01.986Z,0.50
2022-12-17T02:22:55.378Z,0.50
2022-12-17T02:25:49.847Z,0.50
2022-12-17T02:28:38.097Z,0.50
2022-12-17T02:31:39.937Z,0.50
2022-12-17T02:34:49.462Z,0.50
2022-12-17T02:37:35.584Z,0.50
2022-12-17T02:40:22.411Z,0.50
2022-12-17T02:43:10.790Z,0.50
2022-12-17T02:45:57.957Z,0.50
2022-12-17T02:48:44.413Z,0.50
2022-12-17T02:51:33.665Z,0.50
2022-12-17T02:54:22.264Z,0.50
2022-12-17T02:57:07.494Z,0.50
2022-12-17T02:59:53.277Z,0.40
2022-12-17T03:02:49.048Z,0.40
2022-12-17T03:05:44.985Z,0.40
2022-12-17T03:08:31.775Z,0.40
2022-12-17T03:11:18.550Z,0.40
2022-12-17T03:14:03.918Z,0.40
2022-12-17T03:16:49.532Z,0.40
2022-12-17T03:19:37.006Z,0.40
2022-12-17T03:22:22.629Z,0.40
2022-12-17T03:25:08.463Z,0.50
2022-12-17T03:27:54.202Z,0.40
2022-12-17T03:30:42.232Z,0.40
2022-12-17T03:33:31.738Z,0.40
2022-12-17T03:36:19.721Z,0.40
2022-12-17T03:39:05.247Z,0.40
2022-12-17T03:41:51.086Z,0.50
2022-12-17T03:44:36.905Z,0.50
2022-12-17T03:47:23.401Z,0.50
2022-12-17T03:50:29.227Z,0.60
2022-12-17T03:53:15.924Z,0.60
2022-12-17T03:56:01.949Z,0.60
2022-12-17T03:58:47.837Z,0.60
2022-12-17T04:01:33.393Z,0.70
2022-12-17T04:04:19.198Z,0.70
2022-12-17T04:07:04.643Z,0.70
2022-12-17T04:09:53.395Z,0.70
2022-12-17T04:12:39.350Z,0.80
2022-12-17T04:15:25.897Z,0.80
2022-12-17T04:18:11.923Z,0.70
2022-12-17T04:21:01.774Z,0.70
2022-12-17T04:23:47.551Z,0.70
2022-12-17T04:26:35.058Z,0.70
2022-12-17T04:29:20.276Z,0.70
2022-12-17T04:32:18.558Z,0.70
2022-12-17T04:35:04.737Z,0.70
2022-12-17T04:37:50.597Z,0.60
2022-12-17T04:40:36.345Z,0.60
2022-12-17T04:43:28.183Z,0.60
2022-12-17T04:46:15.057Z,0.60
2022-12-17T04:49:01.888Z,0.50
2022-12-17T04:51:48.149Z,0.50
2022-12-17T04:54:36.741Z,0.50
2022-12-17T04:57:23.910Z,0.50
2022-12-17T05:00:13.641Z,0.60
2022-12-17T05:02:59.183Z,0.50
2022-12-17T05:05:45.771Z,0.50
2022-12-17T05:08:39.620Z,0.40
2022-12-17T05:11:27.459Z,0.50
2022-12-17T05:14:14.459Z,0.50
2022-12-17T05:17:05.205Z,0.50
2022-12-17T05:19:50.378Z,0.40
2022-12-17T05:22:35.907Z,0.40
2022-12-17T05:25:20.618Z,0.40
2022-12-17T05:28:06.818Z,0.40
2022-12-17T05:30:55.871Z,0.40
2022-12-17T05:33:44.243Z,0.40
2022-12-17T05:36:45.779Z,0.40
2022-12-17T05:39:32.649Z,0.40
2022-12-17T05:42:18.487Z,0.50
2022-12-17T05:45:05.787Z,0.40
2022-12-17T05:47:52.204Z,0.40
2022-12-17T05:50:41.553Z,0.50
2022-12-17T05:53:30.258Z,0.40
2022-12-17T05:56:15.915Z,0.40
2022-12-17T05:59:03.287Z,0.30
2022-12-17T06:01:48.662Z,0.40
2022-12-17T06:04:35.732Z,0.30
2022-12-17T06:07:22.591Z,0.40
2022-12-17T06:10:08.105Z,0.30
2022-12-17T06:12:53.572Z,0.30
2022-12-17T06:15:39.535Z,0.30
2022-12-17T06:18:24.811Z,0.30
2022-12-17T06:21:11.762Z,0.30
2022-12-17T06:23:58.716Z,0.30
2022-12-17T06:26:44.290Z,0.30
2022-12-17T06:29:30.218Z,0.20
2022-12-17T06:32:15.654Z,0.20
2022-12-17T06:35:01.282Z,0.20
2022-12-17T06:37:46.585Z,0.20
2022-12-17T06:40:33.710Z,0.20
2022-12-17T06:43:19.318Z,0.20
2022-12-17T06:46:04.835Z,0.20
2022-12-17T06:48:50.439Z,0.20
2022-12-17T06:51:35.824Z,0.10
2022-12-17T06:54:21.350Z,0.10
2022-12-17T06:57:08.139Z,0.10
2022-12-17T06:59:53.520Z,0.10
2022-12-17T07:02:35.489Z,0.10
2022-12-17T07:05:21.197Z,0.10
2022-12-17T07:08:14.907Z,0.10
2022-12-17T07:11:00.681Z,0.10
2022-12-17T07:13:47.950Z,0.10
2022-12-17T07:16:33.406Z,0.10
2022-12-17T07:19:27.048Z,0.10
2022-12-17T07:22:12.993Z,0.10
2022-12-17T07:24:58.577Z,0.00
2022-12-17T07:27:44.010Z,0.10
2022-12-17T07:30:33.882Z,0.00
2022-12-17T07:33:20.788Z,0.00
2022-12-17T07:36:06.632Z,0.10
2022-12-17T07:38:54.603Z,0.10
2022-12-17T07:41:49.675Z,0.10
2022-12-17T07:44:35.807Z,0.10
2022-12-17T07:47:29.583Z,0.00
2022-12-17T07:50:16.959Z,0.00
2022-12-17T07:53:24.234Z,0.10
2022-12-17T07:56:10.720Z,0.00
2022-12-17T07:58:56.472Z,0.00
2022-12-17T08:01:42.503Z,0.00
2022-12-17T08:04:37.816Z,0.00
2022-12-17T08:07:23.448Z,0.00
2022-12-17T08:10:08.854Z,0.00
2022-12-17T08:12:54.438Z,0.10
2022-12-17T08:15:40.097Z,0.10
2022-12-17T08:18:26.941Z,0.10
2022-12-17T08:21:15.446Z,0.10
2022-12-17T08:24:01.228Z,0.10
2022-12-17T08:26:47.935Z,0.10
2022-12-17T08:29:34.365Z,0.10
2022-12-17T08:32:20.266Z,0.10
2022-12-17T08:35:05.909Z,0.10
2022-12-17T08:37:54.631Z,0.20
2022-12-17T08:40:40.518Z,0.20
2022-12-17T08:43:28.624Z,0.20
2022-12-17T08:46:14.530Z,0.20
2022-12-17T08:48:59.501Z,0.20
2022-12-17T08:51:45.235Z,0.20
2022-12-17T08:54:32.205Z,0.30
2022-12-17T08:57:30.661Z,0.20
2022-12-17T09:00:17.088Z,0.30
2022-12-17T09:03:03.304Z,0.30
2022-12-17T09:05:49.346Z,0.30
2022-12-17T09:08:35.150Z,0.30
2022-12-17T09:11:33.302Z,0.30
2022-12-17T09:14:19.024Z,0.40
2022-12-17T09:17:04.746Z,0.40
2022-12-17T09:19:52.637Z,0.40
2022-12-17T09:22:38.255Z,0.40
2022-12-17T09:25:24.810Z,0.40
2022-12-17T09:28:11.272Z,0.40
2022-12-17T09:30:57.302Z,0.40
2022-12-17T09:33:42.860Z,0.40
2022-12-17T09:36:37.279Z,0.50
2022-12-17T09:39:22.682Z,0.50
2022-12-17T09:42:17.409Z,0.50
2022-12-17T09:45:09.153Z,0.50
2022-12-17T09:48:05.218Z,0.60
2022-12-17T09:50:50.876Z,0.60
2022-12-17T09:53:43.515Z,0.60
2022-12-17T09:56:32.034Z,0.60
2022-12-17T09:59:17.551Z,0.70
2022-12-17T10:02:04.711Z,0.70
2022-12-17T10:04:53.944Z,0.80
2022-12-17T10:07:58.012Z,0.70
2022-12-17T10:10:54.349Z,0.70
2022-12-17T10:13:41.451Z,0.70
2022-12-17T10:16:42.971Z,0.70
2022-12-17T10:19:33.499Z,0.70
2022-12-17T10:22:27.104Z,0.80
2022-12-17T10:25:12.978Z,0.80
2022-12-17T10:27:58.816Z,0.80
2022-12-17T10:30:45.732Z,0.80
2022-12-17T10:33:37.466Z,0.90
2022-12-17T10:36:50.471Z,0.90
2022-12-17T10:39:38.496Z,0.90
2022-12-17T10:42:42.040Z,0.90
2022-12-17T10:45:39.711Z,1.00
2022-12-17T10:48:40.057Z,1.00
2022-12-17T10:51:39.784Z,1.00
2022-12-17T10:54:38.697Z,1.10
2022-12-17T10:57:26.051Z,1.10
2022-12-17T11:00:11.940Z,1.10
2022-12-17T11:02:57.812Z,1.20
2022-12-17T11:05:47.085Z,1.20
2022-12-17T11:08:34.984Z,1.30
2022-12-17T11:11:22.865Z,1.30
2022-12-17T11:14:11.060Z,1.40
2022-12-17T11:17:01.464Z,1.40
2022-12-17T11:19:54.796Z,1.40
2022-12-17T11:22:50.624Z,1.40
2022-12-17T11:25:49.673Z,1.40
2022-12-17T11:28:41.079Z,1.40
2022-12-17T11:31:58.106Z,1.50
2022-12-17T11:34:49.582Z,1.50
2022-12-17T11:37:39.047Z,1.50
2022-12-17T11:40:39.343Z,1.50
2022-12-17T11:43:34.439Z,1.60
2022-12-17T11:46:37.666Z,1.60
2022-12-17T11:49:30.951Z,1.60
2022-12-17T11:52:28.284Z,1.60
2022-12-17T11:55:22.549Z,1.60
2022-12-17T11:58:16.664Z,1.60
2022-12-17T12:01:13.622Z,1.60
2022-12-17T12:04:05.179Z,1.60
2022-12-17T12:07:00.811Z,1.70
2022-12-17T12:09:54.514Z,1.70
2022-12-17T12:12:57.447Z,1.70
2022-12-17T12:15:51.167Z,1.70
2022-12-17T12:18:48.315Z,1.70
2022-12-17T12:22:00.842Z,1.70
2022-12-17T12:25:09.894Z,1.80
2022-12-17T12:28:04.295Z,1.70
2022-12-17T12:30:59.314Z,1.70
2022-12-17T12:33:50.885Z,1.70
2022-12-17T12:36:38.554Z,1.80
2022-12-17T12:39:27.878Z,1.80
2022-12-17T12:42:17.705Z,1.80
2022-12-17T12:45:08.387Z,1.80
2022-12-17T12:48:02.920Z,1.80
2022-12-17T12:51:00.472Z,1.80
2022-12-17T12:53:46.198Z,1.80
2022-12-17T12:56:46.376Z,1.80
2022-12-17T12:59:43.858Z,1.80
2022-12-17T13:02:46.782Z,1.90
2022-12-17T13:05:33.869Z,1.90
2022-12-17T13:08:20.612Z,1.90
2022-12-17T13:10:49.313Z,1.80
2022-12-17T13:13:28.941Z,1.80
2022-12-17T13:16:02.980Z,1.90
2022-12-17T13:18:34.996Z,1.90
2022-12-17T13:21:06.746Z,1.90
2022-12-17T13:23:38.308Z,1.90
2022-12-17T13:26:17.977Z,1.90
2022-12-17T13:29:01.740Z,1.90
2022-12-17T13:31:35.134Z,1.90
2022-12-17T13:34:14.690Z,1.90
2022-12-17T13:36:48.427Z,2.00
2022-12-17T13:39:32.370Z,1.90
2022-12-17T13:42:01.069Z,2.00
2022-12-17T13:44:36.184Z,1.90
2022-12-17T13:47:04.310Z,2.00
2022-12-17T13:49:33.247Z,1.90
2022-12-17T13:52:07.994Z,2.00
2022-12-17T13:54:40.801Z,1.90
2022-12-17T13:57:10.384Z,1.90
2022-12-17T13:59:39.463Z,1.90
2022-12-17T14:02:27.071Z,2.00
2022-12-17T14:04:59.099Z,1.90
2022-12-17T14:07:29.845Z,1.90
2022-12-17T14:10:03.906Z,1.90
2022-12-17T14:12:34.748Z,1.90
2022-12-17T14:15:08.570Z,1.90
2022-12-17T14:17:41.711Z,1.90
2022-12-17T14:20:14.711Z,1.90
2022-12-17T14:25:38.195Z,1.90
2022-12-17T14:28:08.096Z,1.90
2022-12-17T14:31:02.503Z,1.90
2022-12-17T14:33:31.215Z,1.90
2022-12-17T14:36:04.227Z,1.90
2022-12-17T14:38:41.329Z,1.90
2022-12-17T14:41:33.139Z,1.90
2022-12-17T14:44:03.325Z,1.90
2022-12-17T14:46:32.924Z,1.90
2022-12-17T14:49:03.963Z,1.90
2022-12-17T14:51:35.409Z,1.80
2022-12-17T14:54:08.261Z,1.90
2022-12-17T14:56:37.981Z,1.90
2022-12-17T14:59:06.051Z,1.90
2022-12-17T15:01:35.831Z,1.90
2022-12-17T15:04:04.488Z,1.90
2022-12-17T15:06:32.658Z,1.90
2022-12-17T15:09:00.807Z,1.80
2022-12-17T15:11:29.199Z,1.80
2022-12-17T15:13:58.477Z,1.80
2022-12-17T15:16:27.268Z,1.80
2022-12-17T15:18:55.623Z,1.80
2022-12-17T15:21:24.952Z,1.90
2022-12-17T15:23:53.185Z,1.70
2022-12-17T15:26:21.515Z,1.80
2022-12-17T15:28:49.495Z,1.80
2022-12-17T15:31:24.455Z,1.80
2022-12-17T15:33:53.640Z,1.80
2022-12-17T15:36:21.936Z,1.80
2022-12-17T15:38:50.239Z,1.80
2022-12-17T15:41:36.027Z,1.70
2022-12-17T15:44:04.052Z,1.70
2022-12-17T15:46:33.724Z,1.70
2022-12-17T15:49:02.423Z,1.60
2022-12-17T15:51:30.903Z,1.70
2022-12-17T15:53:58.997Z,1.70
2022-12-17T15:56:29.390Z,1.70
2022-12-17T15:58:59.154Z,1.70
2022-12-17T16:01:27.458Z,1.70
2022-12-17T16:03:57.524Z,1.60
2022-12-17T16:06:26.468Z,1.60
2022-12-17T16:09:01.996Z,1.60
2022-12-17T16:11:33.301Z,1.60
2022-12-17T16:14:01.588Z,1.60
2022-12-17T16:16:31.610Z,1.60
2022-12-17T16:19:02.412Z,1.50
2022-12-17T16:21:30.830Z,1.50
2022-12-17T16:23:59.008Z,1.50
2022-12-17T16:26:28.267Z,1.50
2022-12-17T16:28:57.919Z,1.50
2022-12-17T16:31:26.768Z,1.50
2022-12-17T16:33:55.350Z,1.40
2022-12-17T16:36:24.849Z,1.40
2022-12-17T16:38:54.998Z,1.40
2022-12-17T16:41:24.027Z,1.40
2022-12-17T16:43:52.337Z,1.40
2022-12-17T16:46:28.691Z,1.40
2022-12-17T16:49:00.223Z,1.30
2022-12-17T16:51:44.436Z,1.30
2022-12-17T16:54:26.409Z,1.30
2022-12-17T16:57:01.239Z,1.30
2022-12-17T16:59:30.413Z,1.30
2022-12-17T17:02:00.942Z,1.30
2022-12-17T17:04:29.186Z,1.30
2022-12-17T17:07:08.049Z,1.30
2022-12-17T17:09:36.036Z,1.30
2022-12-17T17:12:04.419Z,1.30
2022-12-17T17:14:32.588Z,1.30
2022-12-17T17:17:00.723Z,1.20
2022-12-17T17:19:29.023Z,1.20
2022-12-17T17:21:58.744Z,1.20
2022-12-17T17:24:29.525Z,1.20
2022-12-17T17:26:57.841Z,1.20
2022-12-17T17:29:25.897Z,1.20
2022-12-17T17:32:09.999Z,1.20
2022-12-17T17:34:44.019Z,1.20
2022-12-17T17:37:13.571Z,1.10
2022-12-17T17:39:41.784Z,1.10
2022-12-17T17:42:10.404Z,1.10
2022-12-17T17:44:38.429Z,1.10
2022-12-17T17:47:06.679Z,1.10
2022-12-17T17:49:34.821Z,1.00
2022-12-17T17:52:11.143Z,1.00
2022-12-17T17:54:41.843Z,1.00
2022-12-17T17:57:10.492Z,1.00
2022-12-17T17:59:39.485Z,1.00
2022-12-17T18:02:08.795Z,1.00
2022-12-17T18:04:36.995Z,0.90
2022-12-17T18:09:54.788Z,0.90
2022-12-17T18:12:40.786Z,0.90
2022-12-17T18:15:14.861Z,0.90
2022-12-17T18:17:44.178Z,0.90
2022-12-17T18:20:12.665Z,0.80
2022-12-17T18:22:40.849Z,0.80
2022-12-17T18:25:10.474Z,0.80
2022-12-17T18:27:38.587Z,0.80
2022-12-17T18:30:10.714Z,0.80
2022-12-17T18:32:38.956Z,0.80
2022-12-17T18:35:12.392Z,0.80
2022-12-17T18:37:42.882Z,0.70
2022-12-17T18:40:12.771Z,0.80
2022-12-17T18:42:58.818Z,0.70
2022-12-17T18:45:26.808Z,0.70
2022-12-17T18:47:54.754Z,0.80
2022-12-17T18:50:24.953Z,0.70
2022-12-17T18:52:55.210Z,0.70
2022-12-17T18:55:24.860Z,0.80
2022-12-17T18:57:52.930Z,0.70
2022-12-17T19:00:24.025Z,0.80
2022-12-17T19:02:52.433Z,0.80
2022-12-17T19:05:20.979Z,0.80
2022-12-17T19:07:50.430Z,0.70
2022-12-17T19:10:18.594Z,0.70
2022-12-17T19:12:53.576Z,0.60
2022-12-17T19:15:25.094Z,0.70
2022-12-17T19:17:54.689Z,0.70
2022-12-17T19:20:23.000Z,0.70
2022-12-17T19:22:51.108Z,0.70
2022-12-17T19:25:22.276Z,0.70
2022-12-17T19:27:51.845Z,0.70
2022-12-17T19:30:20.032Z,0.70
2022-12-17T19:32:53.474Z,0.70
2022-12-17T19:35:21.744Z,0.70
2022-12-17T19:37:50.031Z,0.80
2022-12-17T19:40:18.486Z,0.70
2022-12-17T19:42:48.151Z,0.70
2022-12-17T19:45:20.469Z,0.70
2022-12-17T19:47:48.860Z,0.70
2022-12-17T19:50:17.314Z,0.80
2022-12-17T19:52:48.409Z,0.70
2022-12-17T19:55:20.135Z,0.70
2022-12-17T19:57:48.191Z,0.70
2022-12-17T20:00:18.545Z,0.70
2022-12-17T20:02:48.195Z,0.70
2022-12-17T20:05:21.826Z,0.70
2022-12-17T20:07:50.040Z,0.70
2022-12-17T20:10:18.297Z,0.70
2022-12-17T20:12:54.908Z,0.70
2022-12-17T20:15:28.182Z,0.70
2022-12-17T20:17:56.874Z,0.70
2022-12-17T20:20:45.332Z,0.70
2022-12-17T20:23:13.786Z,0.70
2022-12-17T20:25:42.011Z,0.70
2022-12-17T20:28:10.273Z,0.70
2022-12-17T20:30:42.359Z,0.80
2022-12-17T20:33:10.499Z,0.70
2022-12-17T20:35:41.724Z,0.70
2022-12-17T20:38:10.070Z,0.70
2022-12-17T20:40:41.629Z,0.70
2022-12-17T20:43:15.147Z,0.70
2022-12-17T20:45:51.069Z,0.70
2022-12-17T20:48:25.909Z,0.70
2022-12-17T20:50:54.597Z,0.70
2022-12-17T20:53:25.474Z,0.80
2022-12-17T20:56:22.229Z,0.60
2022-12-17T20:59:14.371Z,0.60
2022-12-17T21:01:44.428Z,0.60
2022-12-17T21:04:14.676Z,0.70
2022-12-17T21:06:44.938Z,0.60
2022-12-17T21:09:15.742Z,0.60
2022-12-17T21:11:44.376Z,0.50
2022-12-17T21:14:15.255Z,0.50
2022-12-17T21:16:48.383Z,0.50
2022-12-17T21:19:19.143Z,0.50
2022-12-17T21:21:50.446Z,0.50
2022-12-17T21:24:18.634Z,0.50
2022-12-17T21:26:47.890Z,0.40
2022-12-17T21:29:16.610Z,0.40
2022-12-17T21:31:49.101Z,0.40
2022-12-17T21:34:21.310Z,0.40
2022-12-17T21:36:49.894Z,0.40
2022-12-17T21:39:20.814Z,0.40
2022-12-17T21:42:08.980Z,0.50
2022-12-17T21:44:37.847Z,0.40
2022-12-17T21:47:07.621Z,0.40
2022-12-17T21:49:36.251Z,0.40
2022-12-17T21:52:07.089Z,0.40
2022-12-17T21:54:42.806Z,0.30
2022-12-17T21:57:37.193Z,0.30
2022-12-17T22:00:10.318Z,0.30
2022-12-17T22:02:40.856Z,0.30
2022-12-17T22:05:17.833Z,0.30
2022-12-17T22:07:51.026Z,0.30
2022-12-17T22:10:36.261Z,0.30
2022-12-17T22:13:38.560Z,0.30
2022-12-17T22:16:13.857Z,0.20
2022-12-17T22:18:45.792Z,0.20
2022-12-17T22:21:38.080Z,0.20
2022-12-17T22:24:08.508Z,0.20
2022-12-17T22:27:09.185Z,0.20
2022-12-17T22:29:56.957Z,0.20
2022-12-17T22:32:44.896Z,0.20
2022-12-17T22:36:49.138Z,0.10
2022-12-17T22:41:06.773Z,0.10
2022-12-17T22:44:36.592Z,0.10
2022-12-17T22:44:44.630Z,0.10
2022-12-17T22:47:13.867Z,0.10
2022-12-17T22:49:42.554Z,0.10
2022-12-17T22:52:43.092Z,0.00
2022-12-17T22:55:11.870Z,0.10
2022-12-17T22:57:44.677Z,0.00
2022-12-17T23:00:40.396Z,0.00
2022-12-17T23:03:09.988Z,0.00
2022-12-17T23:05:38.319Z,0.00
2022-12-17T23:08:15.509Z,0.00
2022-12-17T23:10:44.398Z,-0.10
2022-12-17T23:13:12.717Z,-0.10
2022-12-17T23:15:41.958Z,-0.20
2022-12-17T23:18:14.645Z,-0.10
2022-12-17T23:20:44.577Z,-0.20
2022-12-17T23:23:24.559Z,-0.20
2022-12-17T23:26:05.689Z,-0.30
2022-12-17T23:28:34.604Z,-0.10
2022-12-17T23:31:14.613Z,-0.20
2022-12-17T23:33:55.473Z,-0.30
2022-12-17T23:36:32.493Z,-0.30
2022-12-17T23:39:02.280Z,-0.30
2022-12-17T23:41:32.896Z,-0.30
2022-12-17T23:44:10.236Z,-0.30
2022-12-17T23:46:38.757Z,-0.30
2022-12-17T23:49:08.463Z,-0.30
2022-12-17T23:51:45.219Z,-0.30
2022-12-17T23:54:16.455Z,-0.20
2022-12-17T23:56:47.160Z,-0.20
2022-12-17T23:59:44.419Z,-0.20
